sensor_id;sensor_type;location;lat;lon;timestamp;temperature;humidity
59015;DHT22;44799;53.382;14.666;2022-09-01T00:02:25;15.00;99.90
59015;DHT22;44799;53.382;14.666;2022-09-01T00:04:54;15.00;99.90
59015;DHT22;44799;53.382;14.666;2022-09-01T00:07:24;15.00;99.90
59015;DHT22;44799;53.382;14.666;2022-09-01T00:09:51;14.90;99.90
59015;DHT22;44799;53.382;14.666;2022-09-01T00:12:17;14.90;99.90
59015;DHT22;44799;53.382;14.666;2022-09-01T00:14:43;14.90;99.90
59015;DHT22;44799;53.382;14.666;2022-09-01T00:17:10;14.90;99.90
59015;DHT22;44799;53.382;14.666;2022-09-01T00:19:37;14.90;99.90
59015;DHT22;44799;53.382;14.666;2022-09-01T00:22:04;14.80;99.90
59015;DHT22;44799;53.382;14.666;2022-09-01T00:24:30;14.80;99.90
59015;DHT22;44799;53.382;14.666;2022-09-01T00:26:57;14.80;99.90
59015;DHT22;44799;53.382;14.666;2022-09-01T00:29:24;14.80;99.90
59015;DHT22;44799;53.382;14.666;2022-09-01T00:31:50;14.80;99.90
59015;DHT22;44799;53.382;14.666;2022-09-01T00:34:16;14.80;99.90
59015;DHT22;44799;53.382;14.666;2022-09-01T00:36:42;14.80;99.90
59015;DHT22;44799;53.382;14.666;2022-09-01T00:39:08;14.80;99.90
59015;DHT22;44799;53.382;14.666;2022-09-01T00:41:37;14.80;99.90
59015;DHT22;44799;53.382;14.666;2022-09-01T00:44:07;14.70;99.90
59015;DHT22;44799;53.382;14.666;2022-09-01T00:46:40;14.70;99.90
59015;DHT22;44799;53.382;14.666;2022-09-01T00:49:11;14.70;99.90
59015;DHT22;44799;53.382;14.666;2022-09-01T00:51:40;14.70;99.90
59015;DHT22;44799;53.382;14.666;2022-09-01T00:54:12;14.60;99.90
59015;DHT22;44799;53.382;14.666;2022-09-01T00:56:39;14.60;99.90
59015;DHT22;44799;53.382;14.666;2022-09-01T00:59:07;14.50;99.90
59015;DHT22;44799;53.382;14.666;2022-09-01T01:01:35;14.50;99.90
59015;DHT22;44799;53.382;14.666;2022-09-01T01:04:03;14.50;99.90
59015;DHT22;44799;53.382;14.666;2022-09-01T01:06:29;14.50;99.90
59015;DHT22;44799;53.382;14.666;2022-09-01T01:08:57;14.50;99.90
59015;DHT22;44799;53.382;14.666;2022-09-01T01:11:28;14.50;99.90
59015;DHT22;44799;53.382;14.666;2022-09-01T01:14:01;14.50;99.90
59015;DHT22;44799;53.382;14.666;2022-09-01T01:16:39;14.50;99.90
59015;DHT22;44799;53.382;14.666;2022-09-01T01:22:08;14.50;99.90
59015;DHT22;44799;53.382;14.666;2022-09-01T01:24:53;14.40;99.90
59015;DHT22;44799;53.382;14.666;2022-09-01T01:27:20;14.40;99.90
59015;DHT22;44799;53.382;14.666;2022-09-01T01:29:47;14.40;99.90
59015;DHT22;44799;53.382;14.666;2022-09-01T01:32:16;14.40;99.90
59015;DHT22;44799;53.382;14.666;2022-09-01T01:34:42;14.40;99.90
59015;DHT22;44799;53.382;14.666;2022-09-01T01:37:11;14.30;99.90
59015;DHT22;44799;53.382;14.666;2022-09-01T01:39:39;14.20;99.90
59015;DHT22;44799;53.382;14.666;2022-09-01T01:42:08;14.30;99.90
59015;DHT22;44799;53.382;14.666;2022-09-01T01:44:35;14.30;99.90
59015;DHT22;44799;53.382;14.666;2022-09-01T01:47:04;14.30;99.90
59015;DHT22;44799;53.382;14.666;2022-09-01T01:49:34;14.30;99.90
59015;DHT22;44799;53.382;14.666;2022-09-01T01:52:00;14.30;99.90
59015;DHT22;44799;53.382;14.666;2022-09-01T01:54:27;14.30;99.90
59015;DHT22;44799;53.382;14.666;2022-09-01T01:56:57;14.30;99.90
59015;DHT22;44799;53.382;14.666;2022-09-01T01:59:23;14.20;99.90
59015;DHT22;44799;53.382;14.666;2022-09-01T02:01:51;14.20;99.90
59015;DHT22;44799;53.382;14.666;2022-09-01T02:04:19;14.20;99.90
59015;DHT22;44799;53.382;14.666;2022-09-01T02:06:46;14.20;99.90
59015;DHT22;44799;53.382;14.666;2022-09-01T02:09:19;14.20;99.90
59015;DHT22;44799;53.382;14.666;2022-09-01T02:11:45;14.20;99.90
59015;DHT22;44799;53.382;14.666;2022-09-01T02:14:11;14.10;99.90
59015;DHT22;44799;53.382;14.666;2022-09-01T02:16:38;14.10;99.90
59015;DHT22;44799;53.382;14.666;2022-09-01T02:19:06;14.10;99.90
59015;DHT22;44799;53.382;14.666;2022-09-01T02:21:33;14.00;99.90
59015;DHT22;44799;53.382;14.666;2022-09-01T02:24:03;14.00;99.90
59015;DHT22;44799;53.382;14.666;2022-09-01T02:26:35;14.00;99.90
59015;DHT22;44799;53.382;14.666;2022-09-01T02:29:06;13.90;99.90
59015;DHT22;44799;53.382;14.666;2022-09-01T02:31:35;13.90;99.90
59015;DHT22;44799;53.382;14.666;2022-09-01T02:34:04;13.90;99.90
59015;DHT22;44799;53.382;14.666;2022-09-01T02:36:36;13.90;99.90
59015;DHT22;44799;53.382;14.666;2022-09-01T02:39:16;13.90;99.90
59015;DHT22;44799;53.382;14.666;2022-09-01T02:41:43;13.80;99.90
59015;DHT22;44799;53.382;14.666;2022-09-01T02:44:10;13.80;99.90
59015;DHT22;44799;53.382;14.666;2022-09-01T02:46:44;13.70;99.90
59015;DHT22;44799;53.382;14.666;2022-09-01T02:49:19;13.70;99.90
59015;DHT22;44799;53.382;14.666;2022-09-01T02:51:51;13.70;99.90
59015;DHT22;44799;53.382;14.666;2022-09-01T02:54:19;13.60;99.90
59015;DHT22;44799;53.382;14.666;2022-09-01T02:56:48;13.70;99.90
59015;DHT22;44799;53.382;14.666;2022-09-01T02:59:17;13.60;99.90
59015;DHT22;44799;53.382;14.666;2022-09-01T03:01:47;13.60;99.90
59015;DHT22;44799;53.382;14.666;2022-09-01T03:04:14;13.70;99.90
59015;DHT22;44799;53.382;14.666;2022-09-01T03:06:40;13.70;99.90
59015;DHT22;44799;53.382;14.666;2022-09-01T03:09:09;13.60;99.90
59015;DHT22;44799;53.382;14.666;2022-09-01T03:11:37;13.60;99.90
59015;DHT22;44799;53.382;14.666;2022-09-01T03:14:04;13.70;99.90
59015;DHT22;44799;53.382;14.666;2022-09-01T03:16:31;13.60;99.90
59015;DHT22;44799;53.382;14.666;2022-09-01T03:18:58;13.60;99.90
59015;DHT22;44799;53.382;14.666;2022-09-01T03:21:25;13.60;99.90
59015;DHT22;44799;53.382;14.666;2022-09-01T03:23:52;13.60;99.90
59015;DHT22;44799;53.382;14.666;2022-09-01T03:26:19;13.60;99.90
59015;DHT22;44799;53.382;14.666;2022-09-01T03:28:48;13.60;99.90
59015;DHT22;44799;53.382;14.666;2022-09-01T03:31:14;13.60;99.90
59015;DHT22;44799;53.382;14.666;2022-09-01T03:33:40;13.60;99.90
59015;DHT22;44799;53.382;14.666;2022-09-01T03:36:07;13.50;99.90
59015;DHT22;44799;53.382;14.666;2022-09-01T03:38:34;13.50;99.90
59015;DHT22;44799;53.382;14.666;2022-09-01T03:41:02;13.50;99.90
59015;DHT22;44799;53.382;14.666;2022-09-01T03:43:29;13.50;99.90
59015;DHT22;44799;53.382;14.666;2022-09-01T03:45:56;13.50;99.90
59015;DHT22;44799;53.382;14.666;2022-09-01T03:48:26;13.40;99.90
59015;DHT22;44799;53.382;14.666;2022-09-01T03:50:54;13.40;99.90
59015;DHT22;44799;53.382;14.666;2022-09-01T03:53:22;13.40;99.90
59015;DHT22;44799;53.382;14.666;2022-09-01T03:55:51;13.40;99.90
59015;DHT22;44799;53.382;14.666;2022-09-01T03:58:19;13.40;99.90
59015;DHT22;44799;53.382;14.666;2022-09-01T04:01:03;13.40;99.90
59015;DHT22;44799;53.382;14.666;2022-09-01T04:03:32;13.40;99.90
59015;DHT22;44799;53.382;14.666;2022-09-01T04:06:00;13.30;99.90
59015;DHT22;44799;53.382;14.666;2022-09-01T04:08:27;13.30;99.90
59015;DHT22;44799;53.382;14.666;2022-09-01T04:10:58;13.30;99.90
59015;DHT22;44799;53.382;14.666;2022-09-01T04:13:38;13.30;99.90
59015;DHT22;44799;53.382;14.666;2022-09-01T04:16:05;13.30;99.90
59015;DHT22;44799;53.382;14.666;2022-09-01T04:18:35;13.30;99.90
59015;DHT22;44799;53.382;14.666;2022-09-01T04:21:01;13.30;99.90
59015;DHT22;44799;53.382;14.666;2022-09-01T04:23:32;13.30;99.90
59015;DHT22;44799;53.382;14.666;2022-09-01T04:26:12;13.30;99.90
59015;DHT22;44799;53.382;14.666;2022-09-01T04:28:44;13.20;99.90
59015;DHT22;44799;53.382;14.666;2022-09-01T04:31:14;13.20;99.90
59015;DHT22;44799;53.382;14.666;2022-09-01T04:33:45;13.20;99.90
59015;DHT22;44799;53.382;14.666;2022-09-01T04:36:24;13.30;99.90
59015;DHT22;44799;53.382;14.666;2022-09-01T04:38:57;13.20;99.90
59015;DHT22;44799;53.382;14.666;2022-09-01T04:41:28;13.20;99.90
59015;DHT22;44799;53.382;14.666;2022-09-01T04:44:00;13.20;99.90
59015;DHT22;44799;53.382;14.666;2022-09-01T04:46:40;13.30;99.90
59015;DHT22;44799;53.382;14.666;2022-09-01T04:49:14;13.30;99.90
59015;DHT22;44799;53.382;14.666;2022-09-01T04:51:46;13.30;99.90
59015;DHT22;44799;53.382;14.666;2022-09-01T04:54:13;13.30;99.90
59015;DHT22;44799;53.382;14.666;2022-09-01T04:56:41;13.30;99.90
59015;DHT22;44799;53.382;14.666;2022-09-01T04:59:08;13.30;99.90
59015;DHT22;44799;53.382;14.666;2022-09-01T05:01:36;13.30;99.90
59015;DHT22;44799;53.382;14.666;2022-09-01T05:04:13;13.30;99.90
59015;DHT22;44799;53.382;14.666;2022-09-01T05:06:42;13.40;99.90
59015;DHT22;44799;53.382;14.666;2022-09-01T05:09:10;13.40;99.90
59015;DHT22;44799;53.382;14.666;2022-09-01T05:11:38;13.50;99.90
59015;DHT22;44799;53.382;14.666;2022-09-01T05:14:04;13.50;99.90
59015;DHT22;44799;53.382;14.666;2022-09-01T05:16:33;13.50;99.90
59015;DHT22;44799;53.382;14.666;2022-09-01T05:19:00;13.50;99.90
59015;DHT22;44799;53.382;14.666;2022-09-01T05:21:27;13.60;99.90
59015;DHT22;44799;53.382;14.666;2022-09-01T05:23:56;13.60;99.90
59015;DHT22;44799;53.382;14.666;2022-09-01T05:26:29;13.80;99.90
59015;DHT22;44799;53.382;14.666;2022-09-01T05:28:57;13.80;99.90
59015;DHT22;44799;53.382;14.666;2022-09-01T05:31:26;13.90;99.90
59015;DHT22;44799;53.382;14.666;2022-09-01T05:33:53;13.90;99.90
59015;DHT22;44799;53.382;14.666;2022-09-01T05:36:21;13.40;99.90
59015;DHT22;44799;53.382;14.666;2022-09-01T05:38:48;14.00;99.90
59015;DHT22;44799;53.382;14.666;2022-09-01T05:41:16;14.10;99.90
59015;DHT22;44799;53.382;14.666;2022-09-01T05:43:46;14.20;99.90
59015;DHT22;44799;53.382;14.666;2022-09-01T05:46:16;14.30;99.90
59015;DHT22;44799;53.382;14.666;2022-09-01T05:48:47;14.40;99.90
59015;DHT22;44799;53.382;14.666;2022-09-01T05:51:16;14.40;99.90
59015;DHT22;44799;53.382;14.666;2022-09-01T05:53:45;14.50;99.90
59015;DHT22;44799;53.382;14.666;2022-09-01T05:56:11;14.60;99.90
59015;DHT22;44799;53.382;14.666;2022-09-01T05:58:40;14.70;99.90
59015;DHT22;44799;53.382;14.666;2022-09-01T06:01:25;14.70;99.90
59015;DHT22;44799;53.382;14.666;2022-09-01T06:03:55;14.90;99.90
59015;DHT22;44799;53.382;14.666;2022-09-01T06:06:24;14.90;99.90
59015;DHT22;44799;53.382;14.666;2022-09-01T06:08:51;15.00;99.90
59015;DHT22;44799;53.382;14.666;2022-09-01T06:11:18;15.00;99.90
59015;DHT22;44799;53.382;14.666;2022-09-01T06:13:45;15.10;99.90
59015;DHT22;44799;53.382;14.666;2022-09-01T06:16:15;15.20;99.90
59015;DHT22;44799;53.382;14.666;2022-09-01T06:18:42;15.20;99.90
59015;DHT22;44799;53.382;14.666;2022-09-01T06:21:09;15.30;99.90
59015;DHT22;44799;53.382;14.666;2022-09-01T06:23:44;15.40;99.90
59015;DHT22;44799;53.382;14.666;2022-09-01T06:26:28;15.50;99.90
59015;DHT22;44799;53.382;14.666;2022-09-01T06:28:59;15.60;99.90
59015;DHT22;44799;53.382;14.666;2022-09-01T06:31:28;15.70;99.90
59015;DHT22;44799;53.382;14.666;2022-09-01T06:34:00;15.70;99.90
59015;DHT22;44799;53.382;14.666;2022-09-01T06:36:27;15.80;99.90
59015;DHT22;44799;53.382;14.666;2022-09-01T06:38:54;15.90;99.90
59015;DHT22;44799;53.382;14.666;2022-09-01T06:41:21;16.00;99.90
59015;DHT22;44799;53.382;14.666;2022-09-01T06:43:49;16.00;99.90
59015;DHT22;44799;53.382;14.666;2022-09-01T06:46:16;16.10;99.90
59015;DHT22;44799;53.382;14.666;2022-09-01T06:48:42;16.20;99.90
59015;DHT22;44799;53.382;14.666;2022-09-01T06:51:13;16.30;99.90
59015;DHT22;44799;53.382;14.666;2022-09-01T06:53:41;16.60;99.90
59015;DHT22;44799;53.382;14.666;2022-09-01T06:56:08;16.50;99.90
59015;DHT22;44799;53.382;14.666;2022-09-01T06:58:41;16.70;99.90
59015;DHT22;44799;53.382;14.666;2022-09-01T07:01:10;16.80;99.90
59015;DHT22;44799;53.382;14.666;2022-09-01T07:03:42;17.00;99.90
59015;DHT22;44799;53.382;14.666;2022-09-01T07:06:09;17.10;99.90
59015;DHT22;44799;53.382;14.666;2022-09-01T07:08:36;17.20;99.90
59015;DHT22;44799;53.382;14.666;2022-09-01T07:11:07;17.30;99.90
59015;DHT22;44799;53.382;14.666;2022-09-01T07:13:34;17.40;99.90
59015;DHT22;44799;53.382;14.666;2022-09-01T07:16:02;17.60;99.90
59015;DHT22;44799;53.382;14.666;2022-09-01T07:18:32;17.60;99.90
59015;DHT22;44799;53.382;14.666;2022-09-01T07:20:59;17.70;99.90
59015;DHT22;44799;53.382;14.666;2022-09-01T07:23:25;17.80;99.90
59015;DHT22;44799;53.382;14.666;2022-09-01T07:25:52;17.90;99.90
59015;DHT22;44799;53.382;14.666;2022-09-01T07:28:20;17.90;99.90
59015;DHT22;44799;53.382;14.666;2022-09-01T07:30:51;18.00;99.90
59015;DHT22;44799;53.382;14.666;2022-09-01T07:33:21;18.10;99.90
59015;DHT22;44799;53.382;14.666;2022-09-01T07:35:50;18.10;99.90
59015;DHT22;44799;53.382;14.666;2022-09-01T07:38:24;18.10;99.90
59015;DHT22;44799;53.382;14.666;2022-09-01T07:40:51;17.90;99.90
59015;DHT22;44799;53.382;14.666;2022-09-01T07:43:21;18.00;99.90
59015;DHT22;44799;53.382;14.666;2022-09-01T07:45:50;17.90;99.90
59015;DHT22;44799;53.382;14.666;2022-09-01T07:48:18;17.90;99.90
59015;DHT22;44799;53.382;14.666;2022-09-01T07:50:49;18.00;99.90
59015;DHT22;44799;53.382;14.666;2022-09-01T07:53:20;18.00;99.90
59015;DHT22;44799;53.382;14.666;2022-09-01T07:55:52;18.10;99.90
59015;DHT22;44799;53.382;14.666;2022-09-01T07:58:20;18.10;99.90
59015;DHT22;44799;53.382;14.666;2022-09-01T08:00:46;18.10;99.90
59015;DHT22;44799;53.382;14.666;2022-09-01T08:03:16;18.10;99.90
59015;DHT22;44799;53.382;14.666;2022-09-01T08:05:43;18.20;99.90
59015;DHT22;44799;53.382;14.666;2022-09-01T08:08:09;18.30;99.90
59015;DHT22;44799;53.382;14.666;2022-09-01T08:10:42;18.30;99.90
59015;DHT22;44799;53.382;14.666;2022-09-01T08:13:09;18.40;99.90
59015;DHT22;44799;53.382;14.666;2022-09-01T08:15:38;18.50;99.90
59015;DHT22;44799;53.382;14.666;2022-09-01T08:18:04;18.60;99.90
59015;DHT22;44799;53.382;14.666;2022-09-01T08:20:30;18.60;99.90
59015;DHT22;44799;53.382;14.666;2022-09-01T08:23:00;18.80;99.90
59015;DHT22;44799;53.382;14.666;2022-09-01T08:25:26;18.80;99.90
59015;DHT22;44799;53.382;14.666;2022-09-01T08:27:52;19.00;99.90
59015;DHT22;44799;53.382;14.666;2022-09-01T08:30:18;19.00;99.90
59015;DHT22;44799;53.382;14.666;2022-09-01T08:32:44;19.00;99.90
59015;DHT22;44799;53.382;14.666;2022-09-01T08:35:10;18.90;99.90
59015;DHT22;44799;53.382;14.666;2022-09-01T08:37:38;18.90;99.90
59015;DHT22;44799;53.382;14.666;2022-09-01T08:40:06;18.80;99.90
59015;DHT22;44799;53.382;14.666;2022-09-01T08:43:15;18.80;99.90
59015;DHT22;44799;53.382;14.666;2022-09-01T08:45:56;18.80;99.90
59015;DHT22;44799;53.382;14.666;2022-09-01T08:48:27;18.70;99.90
59015;DHT22;44799;53.382;14.666;2022-09-01T08:53:49;18.70;99.90
59015;DHT22;44799;53.382;14.666;2022-09-01T08:56:19;18.70;99.90
59015;DHT22;44799;53.382;14.666;2022-09-01T08:58:45;18.60;99.90
59015;DHT22;44799;53.382;14.666;2022-09-01T09:10:16;18.30;99.90
59015;DHT22;44799;53.382;14.666;2022-09-01T09:13:29;18.30;99.90
59015;DHT22;44799;53.382;14.666;2022-09-01T09:21:22;18.00;99.90
59015;DHT22;44799;53.382;14.666;2022-09-01T09:24:04;18.00;99.90
59015;DHT22;44799;53.382;14.666;2022-09-01T09:26:31;18.00;99.90
59015;DHT22;44799;53.382;14.666;2022-09-01T09:28:57;18.10;99.90
59015;DHT22;44799;53.382;14.666;2022-09-01T09:31:36;18.10;99.90
59015;DHT22;44799;53.382;14.666;2022-09-01T09:34:39;18.00;99.90
59015;DHT22;44799;53.382;14.666;2022-09-01T09:37:26;18.00;99.90
59015;DHT22;44799;53.382;14.666;2022-09-01T09:40:14;18.00;99.90
59015;DHT22;44799;53.382;14.666;2022-09-01T09:42:57;18.10;99.90
59015;DHT22;44799;53.382;14.666;2022-09-01T09:45:32;18.00;99.90
59015;DHT22;44799;53.382;14.666;2022-09-01T09:48:04;18.00;99.90
59015;DHT22;44799;53.382;14.666;2022-09-01T09:50:41;18.10;99.90
59015;DHT22;44799;53.382;14.666;2022-09-01T09:53:25;18.20;99.90
59015;DHT22;44799;53.382;14.666;2022-09-01T09:58:41;18.40;99.90
59015;DHT22;44799;53.382;14.666;2022-09-01T10:03:50;18.60;99.90
59015;DHT22;44799;53.382;14.666;2022-09-01T10:06:33;18.80;99.90
59015;DHT22;44799;53.382;14.666;2022-09-01T10:09:02;18.90;99.90
59015;DHT22;44799;53.382;14.666;2022-09-01T10:11:35;18.90;99.90
59015;DHT22;44799;53.382;14.666;2022-09-01T10:17:06;19.00;98.50
59015;DHT22;44799;53.382;14.666;2022-09-01T10:19:34;18.90;98.80
59015;DHT22;44799;53.382;14.666;2022-09-01T10:22:04;19.00;99.50
59015;DHT22;44799;53.382;14.666;2022-09-01T10:24:35;19.10;99.90
59015;DHT22;44799;53.382;14.666;2022-09-01T10:27:10;19.10;99.90
59015;DHT22;44799;53.382;14.666;2022-09-01T10:29:53;19.00;99.90
59015;DHT22;44799;53.382;14.666;2022-09-01T10:32:25;19.00;99.90
59015;DHT22;44799;53.382;14.666;2022-09-01T10:34:52;19.10;99.90
59015;DHT22;44799;53.382;14.666;2022-09-01T10:37:18;19.00;99.20
59015;DHT22;44799;53.382;14.666;2022-09-01T10:40:11;19.00;98.90
59015;DHT22;44799;53.382;14.666;2022-09-01T10:42:37;19.00;99.10
59015;DHT22;44799;53.382;14.666;2022-09-01T10:45:03;19.10;98.90
59015;DHT22;44799;53.382;14.666;2022-09-01T10:47:33;19.20;97.60
59015;DHT22;44799;53.382;14.666;2022-09-01T10:50:24;19.40;97.50
59015;DHT22;44799;53.382;14.666;2022-09-01T10:53:02;19.50;97.10
59015;DHT22;44799;53.382;14.666;2022-09-01T11:01:05;19.80;96.70
59015;DHT22;44799;53.382;14.666;2022-09-01T11:03:32;19.90;96.50
59015;DHT22;44799;53.382;14.666;2022-09-01T11:06:00;19.90;96.00
59015;DHT22;44799;53.382;14.666;2022-09-01T11:13:47;20.10;95.50
59015;DHT22;44799;53.382;14.666;2022-09-01T11:16:39;20.10;95.80
59015;DHT22;44799;53.382;14.666;2022-09-01T11:27:08;20.10;93.30
59015;DHT22;44799;53.382;14.666;2022-09-01T11:29:54;20.10;92.90
59015;DHT22;44799;53.382;14.666;2022-09-01T11:32:24;20.20;93.30
59015;DHT22;44799;53.382;14.666;2022-09-01T11:34:54;20.30;93.40
59015;DHT22;44799;53.382;14.666;2022-09-01T11:37:23;20.50;92.60
59015;DHT22;44799;53.382;14.666;2022-09-01T11:39:52;20.50;91.80
59015;DHT22;44799;53.382;14.666;2022-09-01T11:42:25;20.50;91.50
59015;DHT22;44799;53.382;14.666;2022-09-01T11:45:05;20.50;91.40
59015;DHT22;44799;53.382;14.666;2022-09-01T11:47:40;20.60;91.40
59015;DHT22;44799;53.382;14.666;2022-09-01T11:52:56;20.70;91.70
59015;DHT22;44799;53.382;14.666;2022-09-01T11:55:35;20.80;91.90
59015;DHT22;44799;53.382;14.666;2022-09-01T11:58:02;20.80;91.60
59015;DHT22;44799;53.382;14.666;2022-09-01T12:00:33;20.70;92.60
59015;DHT22;44799;53.382;14.666;2022-09-01T12:06:00;20.50;92.10
59015;DHT22;44799;53.382;14.666;2022-09-01T12:08:34;20.50;92.80
59015;DHT22;44799;53.382;14.666;2022-09-01T12:13:33;20.10;94.60
59015;DHT22;44799;53.382;14.666;2022-09-01T12:16:03;20.00;95.20
59015;DHT22;44799;53.382;14.666;2022-09-01T12:18:32;19.70;95.40
59015;DHT22;44799;53.382;14.666;2022-09-01T12:21:01;19.50;96.40
59015;DHT22;44799;53.382;14.666;2022-09-01T12:26:13;19.20;99.60
59015;DHT22;44799;53.382;14.666;2022-09-01T12:28:39;19.10;99.90
59015;DHT22;44799;53.382;14.666;2022-09-01T12:31:14;18.90;99.90
59015;DHT22;44799;53.382;14.666;2022-09-01T12:33:42;18.80;99.90
59015;DHT22;44799;53.382;14.666;2022-09-01T12:36:35;18.60;99.90
59015;DHT22;44799;53.382;14.666;2022-09-01T12:39:21;18.40;99.90
59015;DHT22;44799;53.382;14.666;2022-09-01T12:42:09;18.30;99.90
59015;DHT22;44799;53.382;14.666;2022-09-01T12:47:07;18.20;99.90
59015;DHT22;44799;53.382;14.666;2022-09-01T12:49:37;18.20;99.90
59015;DHT22;44799;53.382;14.666;2022-09-01T12:54:31;18.20;99.90
59015;DHT22;44799;53.382;14.666;2022-09-01T12:56:57;18.30;99.90
59015;DHT22;44799;53.382;14.666;2022-09-01T12:59:25;18.40;99.90
59015;DHT22;44799;53.382;14.666;2022-09-01T13:01:52;18.40;99.90
59015;DHT22;44799;53.382;14.666;2022-09-01T13:04:28;18.50;99.90
59015;DHT22;44799;53.382;14.666;2022-09-01T13:07:00;18.50;99.90
59015;DHT22;44799;53.382;14.666;2022-09-01T13:09:27;18.60;99.20
59015;DHT22;44799;53.382;14.666;2022-09-01T13:11:52;18.70;99.60
59015;DHT22;44799;53.382;14.666;2022-09-01T13:14:18;18.70;99.90
59015;DHT22;44799;53.382;14.666;2022-09-01T13:16:45;18.80;99.90
59015;DHT22;44799;53.382;14.666;2022-09-01T13:19:11;19.00;99.90
59015;DHT22;44799;53.382;14.666;2022-09-01T13:21:37;19.10;99.90
59015;DHT22;44799;53.382;14.666;2022-09-01T13:24:04;19.10;99.50
59015;DHT22;44799;53.382;14.666;2022-09-01T13:26:31;19.20;98.60
59015;DHT22;44799;53.382;14.666;2022-09-01T13:28:57;19.30;98.10
59015;DHT22;44799;53.382;14.666;2022-09-01T13:31:24;19.50;97.30
59015;DHT22;44799;53.382;14.666;2022-09-01T13:33:50;19.50;97.50
59015;DHT22;44799;53.382;14.666;2022-09-01T13:36:16;19.60;97.30
59015;DHT22;44799;53.382;14.666;2022-09-01T13:38:44;19.70;96.50
59015;DHT22;44799;53.382;14.666;2022-09-01T13:41:09;19.80;97.80
59015;DHT22;44799;53.382;14.666;2022-09-01T13:43:36;19.90;99.40
59015;DHT22;44799;53.382;14.666;2022-09-01T13:46:01;20.00;99.40
59015;DHT22;44799;53.382;14.666;2022-09-01T13:48:27;20.10;98.20
59015;DHT22;44799;53.382;14.666;2022-09-01T13:50:54;20.30;97.20
59015;DHT22;44799;53.382;14.666;2022-09-01T13:53:20;20.50;95.40
59015;DHT22;44799;53.382;14.666;2022-09-01T13:55:46;20.70;94.70
59015;DHT22;44799;53.382;14.666;2022-09-01T13:58:13;20.70;94.00
59015;DHT22;44799;53.382;14.666;2022-09-01T14:00:43;20.80;94.00
59015;DHT22;44799;53.382;14.666;2022-09-01T14:03:15;20.90;93.70
59015;DHT22;44799;53.382;14.666;2022-09-01T14:05:45;21.10;93.20
59015;DHT22;44799;53.382;14.666;2022-09-01T14:08:12;21.10;92.20
59015;DHT22;44799;53.382;14.666;2022-09-01T14:10:42;21.20;91.50
59015;DHT22;44799;53.382;14.666;2022-09-01T14:13:09;21.30;89.60
59015;DHT22;44799;53.382;14.666;2022-09-01T14:15:35;21.50;86.00
59015;DHT22;44799;53.382;14.666;2022-09-01T14:18:02;21.80;84.50
59015;DHT22;44799;53.382;14.666;2022-09-01T14:20:31;22.20;86.10
59015;DHT22;44799;53.382;14.666;2022-09-01T14:23:00;22.80;85.50
59015;DHT22;44799;53.382;14.666;2022-09-01T14:25:27;23.50;83.90
59015;DHT22;44799;53.382;14.666;2022-09-01T14:27:54;24.10;81.70
59015;DHT22;44799;53.382;14.666;2022-09-01T14:30:26;24.80;78.80
59015;DHT22;44799;53.382;14.666;2022-09-01T14:32:52;25.30;74.60
59015;DHT22;44799;53.382;14.666;2022-09-01T14:35:21;25.40;72.50
59015;DHT22;44799;53.382;14.666;2022-09-01T14:37:52;25.20;73.30
59015;DHT22;44799;53.382;14.666;2022-09-01T14:40:19;24.90;73.20
59015;DHT22;44799;53.382;14.666;2022-09-01T14:42:47;24.40;74.70
59015;DHT22;44799;53.382;14.666;2022-09-01T14:45:20;24.20;76.80
59015;DHT22;44799;53.382;14.666;2022-09-01T14:47:48;23.80;76.20
59015;DHT22;44799;53.382;14.666;2022-09-01T14:50:15;23.40;77.70
59015;DHT22;44799;53.382;14.666;2022-09-01T14:52:42;22.90;80.50
59015;DHT22;44799;53.382;14.666;2022-09-01T14:55:08;22.70;81.70
59015;DHT22;44799;53.382;14.666;2022-09-01T14:57:35;22.20;83.70
59015;DHT22;44799;53.382;14.666;2022-09-01T15:00:02;22.00;84.90
59015;DHT22;44799;53.382;14.666;2022-09-01T15:02:28;21.80;85.90
59015;DHT22;44799;53.382;14.666;2022-09-01T15:04:55;21.60;86.90
59015;DHT22;44799;53.382;14.666;2022-09-01T15:07:21;21.40;87.60
59015;DHT22;44799;53.382;14.666;2022-09-01T15:09:47;21.30;88.40
59015;DHT22;44799;53.382;14.666;2022-09-01T15:12:13;21.30;88.30
59015;DHT22;44799;53.382;14.666;2022-09-01T15:14:39;21.20;88.70
59015;DHT22;44799;53.382;14.666;2022-09-01T15:17:05;21.00;89.20
59015;DHT22;44799;53.382;14.666;2022-09-01T15:19:31;20.80;90.20
59015;DHT22;44799;53.382;14.666;2022-09-01T15:21:57;20.70;90.60
59015;DHT22;44799;53.382;14.666;2022-09-01T15:24:23;20.60;91.00
59015;DHT22;44799;53.382;14.666;2022-09-01T15:26:49;20.60;91.20
59015;DHT22;44799;53.382;14.666;2022-09-01T15:29:14;20.50;91.20
59015;DHT22;44799;53.382;14.666;2022-09-01T15:31:42;20.50;91.60
59015;DHT22;44799;53.382;14.666;2022-09-01T15:34:09;20.50;91.90
59015;DHT22;44799;53.382;14.666;2022-09-01T15:36:37;20.60;91.80
59015;DHT22;44799;53.382;14.666;2022-09-01T15:39:05;20.50;91.70
59015;DHT22;44799;53.382;14.666;2022-09-01T15:41:33;20.40;92.20
59015;DHT22;44799;53.382;14.666;2022-09-01T15:44:01;20.40;91.70
59015;DHT22;44799;53.382;14.666;2022-09-01T15:46:27;20.50;92.00
59015;DHT22;44799;53.382;14.666;2022-09-01T15:49:03;20.40;92.30
59015;DHT22;44799;53.382;14.666;2022-09-01T15:51:32;20.50;92.60
59015;DHT22;44799;53.382;14.666;2022-09-01T15:54:17;20.60;92.50
59015;DHT22;44799;53.382;14.666;2022-09-01T15:56:44;20.70;92.80
59015;DHT22;44799;53.382;14.666;2022-09-01T15:59:11;20.70;92.80
59015;DHT22;44799;53.382;14.666;2022-09-01T16:01:41;20.80;92.60
59015;DHT22;44799;53.382;14.666;2022-09-01T16:04:08;20.70;92.30
59015;DHT22;44799;53.382;14.666;2022-09-01T16:06:37;21.00;91.70
59015;DHT22;44799;53.382;14.666;2022-09-01T16:09:04;21.20;91.30
59015;DHT22;44799;53.382;14.666;2022-09-01T16:11:30;21.20;91.50
59015;DHT22;44799;53.382;14.666;2022-09-01T16:13:56;21.30;92.00
59015;DHT22;44799;53.382;14.666;2022-09-01T16:22:32;21.20;92.60
59015;DHT22;44799;53.382;14.666;2022-09-01T16:25:03;21.30;92.50
59015;DHT22;44799;53.382;14.666;2022-09-01T16:27:40;21.40;92.40
59015;DHT22;44799;53.382;14.666;2022-09-01T16:30:10;21.50;92.30
59015;DHT22;44799;53.382;14.666;2022-09-01T16:32:40;21.40;91.80
59015;DHT22;44799;53.382;14.666;2022-09-01T16:35:08;21.50;92.10
59015;DHT22;44799;53.382;14.666;2022-09-01T16:44:26;22.20;89.70
59015;DHT22;44799;53.382;14.666;2022-09-01T16:46:32;22.50;87.70
59015;DHT22;44799;53.382;14.666;2022-09-01T16:49:35;22.80;84.80